createdAt,value
2023-04-13T00:01:16.380Z,9.27
2023-04-13T00:03:45.351Z,14.10
2023-04-13T00:06:11.840Z,10.67
2023-04-13T00:08:38.591Z,10.80
2023-04-13T00:11:05.681Z,12.17
2023-04-13T00:13:32.162Z,11.70
2023-04-13T00:16:00.802Z,10.93
2023-04-13T00:18:27.200Z,11.33
2023-04-13T00:20:53.722Z,12.47
2023-04-13T00:23:20.205Z,9.83
2023-04-13T00:25:46.622Z,10.33
2023-04-13T00:28:13.256Z,12.10
2023-04-13T00:30:39.698Z,11.20
2023-04-13T00:33:06.333Z,10.43
2023-04-13T00:35:32.943Z,9.80
2023-04-13T00:38:00.619Z,13.93
2023-04-13T00:40:28.257Z,13.13
2023-04-13T00:42:54.766Z,10.47
2023-04-13T00:45:21.193Z,12.00
2023-04-13T00:47:47.861Z,9.73
2023-04-13T00:50:14.585Z,11.93
2023-04-13T00:52:41.077Z,10.83
2023-04-13T00:55:07.755Z,10.00
2023-04-13T00:57:34.528Z,11.10
2023-04-13T01:00:01.598Z,11.10
2023-04-13T01:02:28.154Z,10.30
2023-04-13T01:04:58.026Z,8.80
2023-04-13T01:07:37.983Z,10.63
2023-04-13T01:10:07.473Z,13.30
2023-04-13T01:12:33.883Z,10.10
2023-04-13T01:15:02.036Z,12.73
2023-04-13T01:17:30.566Z,10.67
2023-04-13T01:20:01.514Z,9.57
2023-04-13T01:22:29.200Z,11.17
2023-04-13T01:25:14.869Z,10.63
2023-04-13T01:27:48.227Z,12.93
2023-04-13T01:30:15.062Z,9.70
2023-04-13T01:32:42.268Z,12.10
2023-04-13T01:35:10.802Z,11.80
2023-04-13T01:37:43.079Z,10.77
2023-04-13T01:40:12.931Z,9.23
2023-04-13T01:42:39.836Z,8.93
2023-04-13T01:45:11.673Z,11.53
2023-04-13T01:47:39.752Z,10.80
2023-04-13T01:50:13.485Z,11.03
2023-04-13T01:52:41.084Z,10.77
2023-04-13T01:55:07.712Z,13.20
2023-04-13T01:57:35.505Z,11.43
2023-04-13T02:00:14.269Z,12.13
2023-04-13T02:02:40.904Z,10.73
2023-04-13T02:05:09.647Z,15.83
2023-04-13T02:07:36.186Z,9.27
2023-04-13T02:10:06.105Z,10.40
2023-04-13T02:12:33.542Z,11.67
2023-04-13T02:15:01.246Z,8.87
2023-04-13T02:17:29.945Z,9.20
2023-04-13T02:19:57.294Z,9.67
2023-04-13T02:22:24.012Z,9.90
2023-04-13T02:24:50.700Z,9.27
2023-04-13T02:27:17.587Z,9.47
2023-04-13T02:29:44.722Z,8.83
2023-04-13T02:32:11.265Z,10.30
2023-04-13T02:34:37.713Z,9.57
2023-04-13T02:37:04.137Z,11.60
2023-04-13T02:39:30.912Z,12.37
2023-04-13T02:41:58.007Z,10.07
2023-04-13T02:44:24.529Z,9.93
2023-04-13T02:46:51.417Z,9.07
2023-04-13T02:49:17.963Z,9.23
2023-04-13T02:51:44.394Z,9.73
2023-04-13T02:54:11.723Z,9.10
2023-04-13T02:56:38.113Z,7.60
2023-04-13T02:59:04.546Z,8.33
2023-04-13T03:01:31.647Z,10.00
2023-04-13T03:03:58.200Z,7.97
2023-04-13T03:06:26.030Z,13.23
2023-04-13T03:08:52.509Z,12.10
2023-04-13T03:11:20.610Z,12.70
2023-04-13T03:13:47.267Z,15.90
2023-04-13T03:16:13.773Z,21.67
2023-04-13T03:18:40.203Z,33.57
2023-04-13T03:21:06.875Z,48.03
2023-04-13T03:23:33.362Z,68.60
2023-04-13T03:25:59.776Z,54.97
2023-04-13T03:28:26.281Z,136.10
2023-04-13T03:30:53.037Z,48.97
2023-04-13T03:33:19.633Z,54.70
2023-04-13T03:35:46.213Z,95.73
2023-04-13T03:38:12.692Z,94.87
2023-04-13T03:40:39.118Z,104.33
2023-04-13T03:43:05.516Z,72.87
2023-04-13T03:45:31.920Z,61.90
2023-04-13T03:47:58.424Z,73.33
2023-04-13T03:50:24.891Z,61.73
2023-04-13T03:52:51.333Z,65.57
2023-04-13T03:55:18.664Z,75.50
2023-04-13T03:57:45.293Z,55.20
2023-04-13T04:00:14.148Z,39.33
2023-04-13T04:02:41.631Z,40.73
2023-04-13T04:05:08.518Z,36.40
2023-04-13T04:07:35.156Z,29.97
2023-04-13T04:10:01.799Z,22.63
2023-04-13T04:12:28.406Z,18.00
2023-04-13T04:14:55.003Z,17.27
2023-04-13T04:17:21.682Z,14.23
2023-04-13T04:19:48.584Z,9.70
2023-04-13T04:22:15.187Z,7.30
2023-04-13T04:24:44.252Z,6.47
2023-04-13T04:27:11.557Z,10.97
2023-04-13T04:29:38.524Z,8.23
2023-04-13T04:32:05.745Z,12.00
2023-04-13T04:34:32.345Z,9.43
2023-04-13T04:37:03.077Z,6.60
2023-04-13T04:39:33.073Z,9.17
2023-04-13T04:42:05.628Z,6.17
2023-04-13T04:44:32.082Z,6.43
2023-04-13T04:47:02.864Z,8.47
2023-04-13T04:49:29.683Z,11.30
2023-04-13T04:51:57.479Z,10.23
2023-04-13T04:54:24.253Z,8.73
2023-04-13T04:56:51.377Z,8.55
2023-04-13T04:59:20.962Z,10.20
2023-04-13T05:01:49.816Z,11.43
2023-04-13T05:04:16.654Z,13.47
2023-04-13T05:06:44.681Z,12.50
2023-04-13T05:09:11.939Z,10.77
2023-04-13T05:11:39.155Z,10.30
2023-04-13T05:14:05.837Z,13.93
2023-04-13T05:16:34.445Z,9.40
2023-04-13T05:19:01.895Z,16.33
2023-04-13T05:21:28.627Z,10.03
2023-04-13T05:23:55.198Z,10.50
2023-04-13T05:26:22.141Z,12.52
2023-04-13T05:28:48.548Z,10.23
2023-04-13T05:31:15.884Z,9.97
2023-04-13T05:33:42.552Z,12.10
2023-04-13T05:36:09.851Z,10.80
2023-04-13T05:38:36.470Z,8.90
2023-04-13T05:41:03.350Z,9.03
2023-04-13T05:43:29.758Z,10.80
2023-04-13T05:45:56.288Z,8.83
2023-04-13T05:48:22.938Z,9.13
2023-04-13T05:50:49.617Z,8.73
2023-04-13T05:53:16.180Z,7.32
2023-04-13T05:55:42.851Z,6.00
2023-04-13T05:58:11.196Z,8.38
2023-04-13T06:00:38.668Z,9.70
2023-04-13T06:03:05.235Z,8.48
2023-04-13T06:05:33.034Z,11.48
2023-04-13T06:07:59.871Z,14.00
2023-04-13T06:10:26.910Z,11.52
2023-04-13T06:12:53.401Z,11.25
2023-04-13T06:15:20.588Z,11.27
2023-04-13T06:17:47.159Z,9.00
2023-04-13T06:20:15.088Z,9.25
2023-04-13T06:22:41.592Z,10.80
2023-04-13T06:25:08.619Z,13.25
2023-04-13T06:27:35.018Z,10.93
2023-04-13T06:30:02.597Z,16.00
2023-04-13T06:32:29.453Z,7.25
2023-04-13T06:34:55.849Z,9.98
2023-04-13T06:37:22.423Z,8.20
2023-04-13T06:39:48.837Z,13.60
2023-04-13T06:42:15.443Z,13.57
2023-04-13T06:44:42.885Z,10.68
2023-04-13T06:47:09.441Z,10.98
2023-04-13T06:49:36.471Z,15.52
2023-04-13T06:52:02.901Z,13.68
2023-04-13T06:54:29.628Z,11.32
2023-04-13T06:56:57.152Z,9.15
2023-04-13T06:59:23.582Z,8.10
2023-04-13T07:01:50.094Z,7.82
2023-04-13T07:04:16.946Z,7.05
2023-04-13T07:06:43.881Z,7.85
2023-04-13T07:09:10.352Z,7.28
2023-04-13T07:11:36.891Z,10.98
2023-04-13T07:14:03.929Z,10.25
2023-04-13T07:16:44.589Z,7.22
2023-04-13T07:19:11.257Z,12.20
2023-04-13T07:21:38.059Z,8.07
2023-04-13T07:24:04.825Z,11.10
2023-04-13T07:26:31.972Z,8.02
2023-04-13T07:28:58.588Z,9.95
2023-04-13T07:31:25.276Z,11.38
2023-04-13T07:33:51.879Z,10.13
2023-04-13T07:36:18.501Z,11.15
2023-04-13T07:38:44.960Z,8.27
2023-04-13T07:41:11.374Z,8.18
2023-04-13T07:43:37.874Z,12.70
2023-04-13T07:46:11.873Z,6.88
2023-04-13T07:48:38.781Z,6.90
2023-04-13T07:51:05.552Z,7.05
2023-04-13T07:53:32.135Z,11.63
2023-04-13T07:55:59.944Z,12.00
2023-04-13T07:58:26.364Z,7.57
2023-04-13T08:00:53.127Z,8.05
2023-04-13T08:03:19.691Z,6.85
2023-04-13T08:05:47.242Z,15.10
2023-04-13T08:08:13.900Z,15.88
2023-04-13T08:10:40.336Z,26.63
2023-04-13T08:13:07.023Z,6.65
2023-04-13T08:15:33.436Z,9.73
2023-04-13T08:17:59.961Z,12.88
2023-04-13T08:20:26.464Z,31.67
2023-04-13T08:22:53.098Z,11.30
2023-04-13T08:25:20.199Z,9.70
2023-04-13T08:27:46.648Z,10.75
2023-04-13T08:30:14.621Z,8.02
2023-04-13T08:32:41.664Z,8.73
2023-04-13T08:35:10.360Z,6.38
2023-04-13T08:37:36.961Z,8.95
2023-04-13T08:40:07.407Z,6.82
2023-04-13T08:42:34.521Z,12.27
2023-04-13T08:45:01.087Z,8.18
2023-04-13T08:47:27.969Z,8.68
2023-04-13T08:49:56.987Z,10.30
2023-04-13T08:52:23.546Z,15.00
2023-04-13T08:54:50.585Z,15.25
2023-04-13T08:57:17.188Z,14.88
2023-04-13T08:59:45.544Z,19.88
2023-04-13T09:02:12.150Z,17.95
2023-04-13T09:04:39.426Z,10.65
2023-04-13T09:07:07.264Z,8.95
2023-04-13T09:09:33.750Z,9.32
2023-04-13T09:12:00.157Z,8.43
2023-04-13T09:14:27.091Z,8.50
2023-04-13T09:16:53.673Z,6.65
2023-04-13T09:19:30.321Z,8.95
2023-04-13T09:21:56.792Z,7.85
2023-04-13T09:24:23.540Z,10.00
2023-04-13T09:26:50.202Z,8.93
2023-04-13T09:29:19.962Z,8.70
2023-04-13T09:31:47.006Z,7.88
2023-04-13T09:34:14.054Z,12.43
2023-04-13T09:36:52.809Z,11.55
2023-04-13T09:39:27.900Z,13.00
2023-04-13T09:41:55.089Z,10.73
2023-04-13T09:44:24.324Z,10.57
2023-04-13T09:47:00.368Z,15.57
2023-04-13T09:49:27.416Z,10.68
2023-04-13T09:51:53.961Z,8.15
2023-04-13T09:54:20.929Z,12.65
2023-04-13T09:57:05.817Z,8.88
2023-04-13T09:59:32.681Z,9.57
2023-04-13T10:01:59.186Z,11.90
2023-04-13T10:04:25.888Z,10.60
2023-04-13T10:06:52.578Z,9.90
2023-04-13T10:09:20.808Z,9.80
2023-04-13T10:11:49.977Z,12.75
2023-04-13T10:14:17.663Z,13.10
2023-04-13T10:16:48.898Z,10.52
2023-04-13T10:19:16.031Z,16.70
2023-04-13T10:21:46.351Z,27.58
2023-04-13T10:24:13.285Z,11.77
2023-04-13T10:26:40.255Z,11.02
2023-04-13T10:29:08.036Z,9.18
2023-04-13T10:31:47.734Z,11.52
2023-04-13T10:34:23.332Z,9.82
2023-04-13T10:36:51.704Z,9.65
2023-04-13T10:39:24.766Z,10.00
2023-04-13T10:42:07.821Z,11.85
2023-04-13T10:44:44.014Z,13.50
2023-04-13T10:47:11.629Z,12.35
2023-04-13T10:49:38.238Z,11.98
2023-04-13T10:52:10.760Z,13.48
2023-04-13T10:54:37.398Z,13.57
2023-04-13T10:57:04.711Z,9.63
2023-04-13T10:59:53.091Z,10.10
2023-04-13T11:02:29.600Z,12.18
2023-04-13T11:04:56.911Z,10.85
2023-04-13T11:07:23.605Z,11.25
2023-04-13T11:09:53.153Z,9.85
2023-04-13T11:12:19.645Z,10.93
2023-04-13T11:14:46.531Z,10.57
2023-04-13T11:17:17.396Z,10.65
2023-04-13T11:19:50.911Z,11.18
2023-04-13T11:22:21.600Z,13.50
2023-04-13T11:24:48.381Z,10.32
2023-04-13T11:27:24.178Z,10.40
2023-04-13T11:30:00.718Z,11.25
2023-04-13T11:32:28.133Z,9.95
2023-04-13T11:35:04.520Z,11.75
2023-04-13T11:37:35.089Z,11.30
2023-04-13T11:40:09.721Z,10.43
2023-04-13T11:42:39.988Z,11.02
2023-04-13T11:45:07.145Z,13.75
2023-04-13T11:47:33.587Z,12.30
2023-04-13T11:50:00.152Z,14.13
2023-04-13T11:52:26.553Z,10.60
2023-04-13T11:54:53.558Z,11.57
2023-04-13T11:57:20.109Z,12.57
2023-04-13T11:59:47.745Z,9.32
2023-04-13T12:02:21.713Z,13.05
2023-04-13T12:04:49.612Z,13.50
2023-04-13T12:07:16.783Z,14.43
2023-04-13T12:09:56.116Z,12.32
2023-04-13T12:15:12.694Z,11.95
2023-04-13T12:17:49.463Z,14.80
2023-04-13T12:20:16.946Z,12.82
2023-04-13T12:25:17.595Z,12.70
2023-04-13T12:27:44.346Z,12.88
2023-04-13T12:30:12.275Z,13.15
2023-04-13T12:32:48.689Z,12.60
2023-04-13T12:35:15.721Z,11.68
2023-04-13T12:37:42.458Z,13.15
2023-04-13T12:40:11.301Z,11.70
2023-04-13T12:42:38.045Z,13.77
2023-04-13T12:45:04.923Z,11.02
2023-04-13T12:47:31.481Z,13.60
2023-04-13T12:49:57.906Z,12.80
2023-04-13T12:52:24.400Z,10.85
2023-04-13T12:54:51.009Z,14.07
2023-04-13T12:57:18.376Z,12.25
2023-04-13T12:59:45.460Z,14.40
2023-04-13T13:02:12.101Z,14.55
2023-04-13T13:04:38.599Z,12.57
2023-04-13T13:07:05.207Z,12.52
2023-04-13T13:09:32.071Z,12.55
2023-04-13T13:11:58.705Z,11.70
2023-04-13T13:14:25.245Z,10.80
2023-04-13T13:16:51.787Z,10.23
2023-04-13T13:19:18.255Z,9.75
2023-04-13T13:21:44.731Z,10.45
2023-04-13T13:24:11.307Z,9.98
2023-04-13T13:27:00.209Z,10.27
2023-04-13T13:29:24.212Z,11.90
2023-04-13T13:31:51.432Z,9.63
2023-04-13T13:34:18.086Z,10.25
2023-04-13T13:36:44.563Z,12.45
2023-04-13T13:39:12.380Z,14.40
2023-04-13T13:41:38.944Z,13.10
2023-04-13T13:44:05.384Z,11.88
2023-04-13T13:46:32.069Z,10.38
2023-04-13T13:48:58.857Z,11.73
2023-04-13T13:51:27.790Z,12.35
2023-04-13T13:53:54.246Z,12.15
2023-04-13T13:56:21.164Z,18.17
2023-04-13T13:58:48.016Z,19.73
2023-04-13T14:01:14.820Z,15.23
2023-04-13T14:03:41.687Z,11.57
2023-04-13T14:06:08.381Z,16.08
2023-04-13T14:08:34.982Z,11.63
2023-04-13T14:11:01.601Z,11.55
2023-04-13T14:13:28.058Z,13.85
2023-04-13T14:15:54.542Z,12.05
2023-04-13T14:18:21.182Z,11.82
2023-04-13T14:20:47.678Z,15.15
2023-04-13T14:23:14.581Z,13.18
2023-04-13T14:25:41.430Z,16.05
2023-04-13T14:28:09.412Z,19.38
2023-04-13T14:30:37.611Z,19.08
2023-04-13T14:33:04.190Z,13.18
2023-04-13T14:35:30.743Z,12.98
2023-04-13T14:37:57.152Z,15.15
2023-04-13T14:40:24.280Z,13.57
2023-04-13T14:42:54.006Z,14.50
2023-04-13T14:45:21.143Z,14.85
2023-04-13T14:47:47.696Z,17.40
2023-04-13T14:50:15.601Z,15.82
2023-04-13T14:52:45.971Z,18.17
2023-04-13T14:55:13.004Z,16.20
2023-04-13T14:57:40.141Z,19.77
2023-04-13T15:00:26.237Z,18.45
2023-04-13T15:02:53.564Z,15.75
2023-04-13T15:05:20.397Z,16.80
2023-04-13T15:07:48.110Z,15.07
2023-04-13T15:10:14.649Z,17.08
2023-04-13T15:12:41.578Z,19.30
2023-04-13T15:15:08.474Z,16.40
2023-04-13T15:17:34.961Z,15.57
2023-04-13T15:20:01.578Z,13.70
2023-04-13T15:22:28.153Z,14.05
2023-04-13T15:24:54.966Z,14.32
2023-04-13T15:27:21.386Z,15.80
2023-04-13T15:29:47.907Z,20.13
2023-04-13T15:32:14.378Z,14.93
2023-04-13T15:34:40.780Z,17.13
2023-04-13T15:37:07.197Z,15.23
2023-04-13T15:39:33.649Z,12.45
2023-04-13T15:42:00.702Z,11.65
2023-04-13T15:44:27.153Z,12.35
2023-04-13T15:46:53.564Z,13.75
2023-04-13T15:49:19.976Z,13.80
2023-04-13T15:51:46.650Z,14.50
2023-04-13T15:54:13.124Z,13.23
2023-04-13T15:56:39.907Z,14.23
2023-04-13T15:59:06.783Z,13.45
2023-04-13T16:01:46.028Z,13.38
2023-04-13T16:04:12.794Z,14.82
2023-04-13T16:06:40.027Z,19.55
2023-04-13T16:09:06.517Z,20.55
2023-04-13T16:11:32.919Z,21.83
2023-04-13T16:14:07.208Z,34.30
2023-04-13T16:16:53.586Z,25.83
2023-04-13T16:19:20.005Z,20.83
2023-04-13T16:21:47.057Z,19.50
2023-04-13T16:24:13.527Z,19.58
2023-04-13T16:26:40.005Z,22.15
2023-04-13T16:29:08.034Z,20.75
2023-04-13T16:31:34.542Z,23.15
2023-04-13T16:34:04.920Z,21.50
2023-04-13T16:36:35.649Z,17.40
2023-04-13T16:39:06.005Z,19.45
2023-04-13T16:41:32.623Z,23.10
2023-04-13T16:43:59.244Z,22.80
2023-04-13T16:46:25.948Z,22.30
2023-04-13T16:48:52.357Z,20.98
2023-04-13T16:51:18.955Z,19.83
2023-04-13T16:53:45.460Z,20.85
2023-04-13T16:56:12.058Z,29.95
2023-04-13T16:58:38.561Z,34.83
2023-04-13T17:01:05.127Z,35.53
2023-04-13T17:03:32.210Z,32.20
2023-04-13T17:05:58.746Z,24.02
2023-04-13T17:08:25.735Z,26.58
2023-04-13T17:10:52.452Z,22.85
2023-04-13T17:13:18.929Z,23.27
2023-04-13T17:15:45.484Z,25.70
2023-04-13T17:18:12.283Z,25.60
2023-04-13T17:20:39.911Z,23.08
2023-04-13T17:23:06.360Z,26.25
2023-04-13T17:25:34.872Z,24.48
2023-04-13T17:28:01.487Z,23.73
2023-04-13T17:30:28.120Z,23.25
2023-04-13T17:32:54.646Z,25.98
2023-04-13T17:35:21.402Z,23.58
2023-04-13T17:37:48.030Z,27.15
2023-04-13T17:40:14.437Z,26.60
2023-04-13T17:42:40.885Z,26.55
2023-04-13T17:45:07.603Z,26.42
2023-04-13T17:47:34.056Z,25.13
2023-04-13T17:50:00.651Z,26.13
2023-04-13T17:52:27.082Z,25.77
2023-04-13T17:54:53.949Z,26.75
2023-04-13T17:57:20.378Z,22.25
2023-04-13T17:59:47.275Z,30.70
2023-04-13T18:02:13.776Z,29.23
2023-04-13T18:04:40.328Z,33.78
2023-04-13T18:07:07.075Z,29.45
2023-04-13T18:09:33.496Z,27.20
2023-04-13T18:12:00.004Z,40.95
2023-04-13T18:14:26.425Z,28.77
2023-04-13T18:16:52.937Z,23.95
2023-04-13T18:19:19.527Z,23.95
2023-04-13T18:21:46.014Z,27.92
2023-04-13T18:24:12.529Z,28.38
2023-04-13T18:26:39.160Z,28.27
2023-04-13T18:29:05.821Z,23.63
2023-04-13T18:31:32.408Z,23.52
2023-04-13T18:33:59.321Z,22.92
2023-04-13T18:36:26.369Z,20.23
2023-04-13T18:38:54.856Z,21.88
2023-04-13T18:41:23.818Z,21.98
2023-04-13T18:43:50.587Z,18.73
2023-04-13T18:46:17.089Z,20.23
2023-04-13T18:48:44.720Z,20.27
2023-04-13T18:51:12.663Z,18.85
2023-04-13T18:53:39.374Z,19.30
2023-04-13T18:56:05.881Z,16.73
2023-04-13T18:58:32.319Z,18.95
2023-04-13T19:00:58.793Z,18.65
2023-04-13T19:03:25.411Z,24.98
2023-04-13T19:05:52.276Z,21.23
2023-04-13T19:08:18.761Z,20.00
2023-04-13T19:10:45.269Z,19.95
2023-04-13T19:13:11.733Z,17.08
2023-04-13T19:15:39.167Z,14.80
2023-04-13T19:18:06.137Z,20.90
2023-04-13T19:20:32.555Z,16.27
2023-04-13T19:22:58.986Z,17.88
2023-04-13T19:25:25.467Z,14.90
2023-04-13T19:27:51.984Z,26.30
2023-04-13T19:30:19.504Z,31.52
2023-04-13T19:32:46.576Z,22.20
2023-04-13T19:35:13.816Z,19.45
2023-04-13T19:37:40.721Z,22.55
2023-04-13T19:40:10.125Z,17.77
2023-04-13T19:42:36.805Z,19.90
2023-04-13T19:45:03.501Z,16.85
2023-04-13T19:47:30.001Z,19.75
2023-04-13T19:49:56.983Z,19.90
2023-04-13T19:52:23.648Z,18.38
2023-04-13T19:54:50.054Z,15.68
2023-04-13T19:57:16.550Z,15.32
2023-04-13T19:59:44.198Z,16.67
2023-04-13T20:02:11.327Z,16.02
2023-04-13T20:04:38.239Z,23.80
2023-04-13T20:07:04.832Z,22.60
2023-04-13T20:09:33.342Z,24.02
2023-04-13T20:12:00.128Z,23.02
2023-04-13T20:14:26.576Z,20.70
2023-04-13T20:16:53.094Z,20.38
2023-04-13T20:19:20.315Z,17.52
2023-04-13T20:21:46.832Z,16.75
2023-04-13T20:24:13.278Z,19.05
2023-04-13T20:26:47.182Z,19.00
2023-04-13T20:29:16.771Z,21.50
2023-04-13T20:31:43.338Z,18.95
2023-04-13T20:34:12.173Z,21.08
2023-04-13T20:37:09.862Z,28.83
2023-04-13T20:39:38.064Z,26.35
2023-04-13T20:42:06.006Z,20.17
2023-04-13T20:48:48.447Z,22.85
2023-04-13T20:50:48.762Z,21.27
2023-04-13T20:53:16.876Z,23.60
2023-04-13T20:55:46.430Z,28.50
2023-04-13T20:58:14.588Z,23.65
2023-04-13T21:00:43.083Z,26.20
2023-04-13T21:03:10.067Z,30.13
2023-04-13T21:05:36.751Z,26.33
2023-04-13T21:08:03.733Z,32.88
2023-04-13T21:10:30.236Z,29.80
2023-04-13T21:12:56.683Z,26.05
2023-04-13T21:15:23.106Z,25.58
2023-04-13T21:17:49.628Z,23.35
2023-04-13T21:20:16.168Z,26.35
2023-04-13T21:22:42.659Z,27.08
2023-04-13T21:25:09.288Z,32.17
2023-04-13T21:27:35.704Z,29.48
2023-04-13T21:30:02.233Z,29.42
2023-04-13T21:32:29.521Z,29.90
2023-04-13T21:34:57.690Z,34.38
2023-04-13T21:37:24.237Z,41.97
2023-04-13T21:39:50.860Z,31.40
2023-04-13T21:42:17.441Z,28.77
2023-04-13T21:44:43.997Z,32.37
2023-04-13T21:47:10.643Z,30.15
2023-04-13T21:49:37.121Z,29.05
2023-04-13T21:52:03.720Z,35.38
2023-04-13T21:54:30.376Z,26.63
2023-04-13T21:57:00.225Z,35.63
2023-04-13T21:59:28.003Z,26.75
2023-04-13T22:01:54.875Z,31.47
2023-04-13T22:04:21.740Z,26.10
2023-04-13T22:06:48.330Z,27.37
2023-04-13T22:09:16.279Z,34.53
2023-04-13T22:11:42.765Z,31.55
2023-04-13T22:14:10.684Z,30.33
2023-04-13T22:16:37.186Z,33.63
2023-04-13T22:19:03.762Z,26.03
2023-04-13T22:21:30.310Z,25.77
2023-04-13T22:23:56.849Z,27.07
2023-04-13T22:26:25.293Z,25.00
2023-04-13T22:28:51.926Z,27.70
2023-04-13T22:31:18.412Z,25.00
2023-04-13T22:33:44.863Z,28.43
2023-04-13T22:36:19.445Z,30.43
2023-04-13T22:38:46.355Z,30.98
2023-04-13T22:41:12.818Z,27.77
2023-04-13T22:43:58.362Z,24.03
2023-04-13T22:46:24.802Z,27.00
2023-04-13T22:48:51.388Z,29.23
2023-04-13T22:51:18.175Z,24.73
2023-04-13T22:53:45.005Z,24.43
2023-04-13T22:56:12.677Z,23.87
2023-04-13T22:58:39.130Z,25.17
2023-04-13T23:01:05.520Z,24.43
2023-04-13T23:03:32.096Z,22.37
2023-04-13T23:05:58.616Z,21.90
2023-04-13T23:08:25.175Z,24.37
2023-04-13T23:10:51.815Z,20.77
2023-04-13T23:13:18.274Z,22.30
2023-04-13T23:15:44.752Z,27.03
2023-04-13T23:18:11.146Z,26.13
2023-04-13T23:20:37.585Z,26.57
2023-04-13T23:23:03.986Z,30.03
2023-04-13T23:25:30.403Z,27.87
2023-04-13T23:27:56.842Z,25.40
2023-04-13T23:30:23.599Z,25.55
2023-04-13T23:32:50.151Z,30.35
2023-04-13T23:35:16.619Z,26.83
2023-04-13T23:37:45.212Z,27.63
2023-04-13T23:40:11.897Z,25.63
2023-04-13T23:42:38.401Z,31.47
2023-04-13T23:45:05.016Z,38.93
2023-04-13T23:47:31.486Z,32.67
2023-04-13T23:49:57.997Z,38.80
2023-04-13T23:52:24.501Z,32.93
2023-04-13T23:54:51.087Z,37.00
2023-04-13T23:57:17.483Z,32.50
2023-04-13T23:59:44.170Z,32.93
